createdAt,value
2023-03-28T00:02:08.357Z,101685.31
2023-03-28T00:04:53.845Z,101680.09
2023-03-28T00:07:39.497Z,101681.75
2023-03-28T00:10:24.389Z,101686.38
2023-03-28T00:13:10.593Z,101694.03
2023-03-28T00:15:55.702Z,101691.13
2023-03-28T00:18:41.627Z,101691.69
2023-03-28T00:21:29.179Z,101685.59
2023-03-28T00:24:20.287Z,101693.91
2023-03-28T00:27:06.433Z,101685.09
2023-03-28T00:29:52.081Z,101697.00
2023-03-28T00:32:37.301Z,101703.13
2023-03-28T00:35:22.824Z,101704.13
2023-03-28T00:38:08.008Z,101705.53
2023-03-28T00:40:54.270Z,101699.97
2023-03-28T00:43:47.573Z,101699.22
2023-03-28T00:46:39.873Z,101693.53
2023-03-28T00:49:26.179Z,101704.31
2023-03-28T00:52:13.234Z,101709.69
2023-03-28T00:54:59.735Z,101705.59
2023-03-28T00:57:46.393Z,101703.78
2023-03-28T01:00:33.393Z,101704.91
2023-03-28T01:03:20.136Z,101703.16
2023-03-28T01:06:06.195Z,101709.84
2023-03-28T01:08:52.235Z,101710.19
2023-03-28T01:11:40.492Z,101713.50
2023-03-28T01:14:28.301Z,101712.63
2023-03-28T01:17:13.962Z,101721.69
2023-03-28T01:20:09.158Z,101719.28
2023-03-28T01:23:08.430Z,101721.81
2023-03-28T01:26:22.917Z,101724.84
2023-03-28T01:29:56.682Z,101716.81
2023-03-28T01:32:54.110Z,101723.81
2023-03-28T01:36:03.951Z,101722.09
2023-03-28T01:39:03.877Z,101728.06
2023-03-28T01:42:30.816Z,101733.47
2023-03-28T01:45:41.574Z,101731.03
2023-03-28T01:48:37.063Z,101734.25
2023-03-28T01:51:34.236Z,101740.81
2023-03-28T01:54:26.625Z,101744.22
2023-03-28T01:57:23.197Z,101730.63
2023-03-28T02:00:19.390Z,101736.03
2023-03-28T02:03:31.837Z,101741.91
2023-03-28T02:06:18.135Z,101744.91
2023-03-28T02:09:05.441Z,101740.69
2023-03-28T02:11:56.611Z,101742.78
2023-03-28T02:14:44.153Z,101738.13
2023-03-28T02:17:30.117Z,101741.56
2023-03-28T02:20:19.021Z,101741.88
2023-03-28T02:23:22.514Z,101746.75
2023-03-28T02:26:08.175Z,101752.50
2023-03-28T02:28:56.572Z,101742.22
2023-03-28T02:31:41.850Z,101751.28
2023-03-28T02:34:26.917Z,101755.16
2023-03-28T02:37:19.969Z,101747.97
2023-03-28T02:40:14.407Z,101749.06
2023-03-28T02:43:11.450Z,101748.75
2023-03-28T02:46:17.665Z,101746.56
2023-03-28T02:49:14.838Z,101744.75
2023-03-28T02:52:16.968Z,101747.59
2023-03-28T02:55:11.508Z,101747.19
2023-03-28T02:58:05.445Z,101750.28
2023-03-28T03:00:50.777Z,101746.03
2023-03-28T03:03:37.228Z,101742.91
2023-03-28T03:06:22.792Z,101747.53
2023-03-28T03:09:08.054Z,101748.38
2023-03-28T03:11:52.893Z,101751.25
2023-03-28T03:14:37.875Z,101752.84
2023-03-28T03:17:23.211Z,101747.25
2023-03-28T03:20:08.767Z,101742.75
2023-03-28T03:22:56.683Z,101747.50
2023-03-28T03:25:42.561Z,101750.97
2023-03-28T03:28:27.461Z,101749.81
2023-03-28T03:31:12.610Z,101752.59
2023-03-28T03:33:57.576Z,101758.84
2023-03-28T03:36:42.332Z,101752.81
2023-03-28T03:39:27.301Z,101759.22
2023-03-28T03:42:12.754Z,101758.94
2023-03-28T03:44:57.814Z,101768.19
2023-03-28T03:47:43.726Z,101756.97
2023-03-28T03:50:29.163Z,101761.53
2023-03-28T03:53:14.882Z,101758.09
2023-03-28T03:56:01.664Z,101760.63
2023-03-28T03:58:46.830Z,101756.44
2023-03-28T04:01:31.801Z,101751.06
2023-03-28T04:04:16.671Z,101755.00
2023-03-28T04:07:02.547Z,101756.28
2023-03-28T04:09:47.525Z,101769.56
2023-03-28T04:12:32.494Z,101769.97
2023-03-28T04:15:18.128Z,101767.44
2023-03-28T04:18:05.704Z,101774.69
2023-03-28T04:20:55.223Z,101775.53
2023-03-28T04:23:40.696Z,101778.31
2023-03-28T04:26:26.205Z,101782.50
2023-03-28T04:29:12.117Z,101785.94
2023-03-28T04:31:58.369Z,101789.03
2023-03-28T04:34:43.741Z,101788.94
2023-03-28T04:37:28.915Z,101786.72
2023-03-28T04:40:14.083Z,101785.69
2023-03-28T04:42:58.991Z,101788.88
2023-03-28T04:45:44.861Z,101789.28
2023-03-28T04:48:30.316Z,101790.16
2023-03-28T04:51:15.974Z,101802.25
2023-03-28T04:54:00.844Z,101800.75
2023-03-28T04:56:46.723Z,101800.06
2023-03-28T04:59:32.166Z,101809.06
2023-03-28T05:02:17.102Z,101822.72
2023-03-28T05:05:01.998Z,101814.63
2023-03-28T05:07:47.253Z,101821.84
2023-03-28T05:10:32.380Z,101825.88
2023-03-28T05:13:18.126Z,101837.03
2023-03-28T05:16:04.230Z,101831.25
2023-03-28T05:18:49.307Z,101830.69
2023-03-28T05:21:34.218Z,101832.69
2023-03-28T05:24:19.080Z,101837.84
2023-03-28T05:27:04.291Z,101836.72
2023-03-28T05:29:49.495Z,101846.63
2023-03-28T05:32:35.090Z,101850.94
2023-03-28T05:35:20.490Z,101856.19
2023-03-28T05:38:05.840Z,101851.03
2023-03-28T05:40:50.983Z,101864.28
2023-03-28T05:43:36.089Z,101856.50
2023-03-28T05:46:20.808Z,101869.31
2023-03-28T05:49:06.322Z,101872.47
2023-03-28T05:51:51.737Z,101875.16
2023-03-28T05:54:37.110Z,101873.13
2023-03-28T05:57:23.107Z,101878.78
2023-03-28T06:00:08.897Z,101875.16
2023-03-28T06:02:53.932Z,101883.75
2023-03-28T06:05:38.912Z,101877.88
2023-03-28T06:08:24.267Z,101870.63
2023-03-28T06:11:09.715Z,101877.75
2023-03-28T06:13:55.145Z,101880.47
2023-03-28T06:16:40.658Z,101882.16
2023-03-28T06:19:26.299Z,101886.44
2023-03-28T06:22:11.409Z,101872.44
2023-03-28T06:24:56.807Z,101858.47
2023-03-28T06:27:42.118Z,101854.75
2023-03-28T06:30:26.830Z,101833.69
2023-03-28T06:33:12.440Z,101810.53
2023-03-28T06:35:57.789Z,101811.69
2023-03-28T06:38:43.233Z,101812.94
2023-03-28T06:41:28.818Z,101803.00
2023-03-28T06:44:14.085Z,101780.59
2023-03-28T06:46:59.027Z,101776.25
2023-03-28T06:49:44.150Z,101755.66
2023-03-28T06:52:29.086Z,101766.56
2023-03-28T06:55:14.008Z,101769.91
2023-03-28T06:57:58.900Z,101781.47
2023-03-28T07:00:44.146Z,101772.34
2023-03-28T07:03:30.450Z,101756.94
2023-03-28T07:06:15.857Z,101780.19
2023-03-28T07:09:01.864Z,101804.09
2023-03-28T07:11:48.046Z,101819.63
2023-03-28T07:14:33.042Z,101821.16
2023-03-28T07:17:18.227Z,101845.28
2023-03-28T07:20:04.350Z,101845.16
2023-03-28T07:22:49.876Z,101834.00
2023-03-28T07:25:34.903Z,101812.53
2023-03-28T07:28:20.089Z,101794.75
2023-03-28T07:31:05.946Z,101790.41
2023-03-28T07:33:53.755Z,101773.47
2023-03-28T07:36:38.856Z,101759.63
2023-03-28T07:39:23.773Z,101784.38
2023-03-28T07:42:13.776Z,101798.03
2023-03-28T07:44:58.721Z,101789.31
2023-03-28T07:47:43.640Z,101793.09
2023-03-28T07:50:29.014Z,101787.22
2023-03-28T07:53:14.490Z,101765.06
2023-03-28T07:55:59.783Z,101734.28
2023-03-28T07:58:44.785Z,101687.84
2023-03-28T08:01:30.076Z,101688.06
2023-03-28T08:04:15.524Z,101736.31
2023-03-28T08:07:00.905Z,101747.75
2023-03-28T08:09:46.086Z,101713.41
2023-03-28T08:12:31.536Z,101684.94
2023-03-28T08:15:16.770Z,101658.44
2023-03-28T08:18:02.483Z,101599.16
2023-03-28T08:20:48.476Z,101578.84
2023-03-28T08:23:33.581Z,101608.75
2023-03-28T08:26:19.592Z,101617.56
2023-03-28T08:29:05.587Z,101670.78
2023-03-28T08:31:50.886Z,101736.09
2023-03-28T08:34:37.510Z,101742.50
2023-03-28T08:37:22.740Z,101665.38
2023-03-28T08:40:11.000Z,101630.38
2023-03-28T08:43:22.297Z,101695.41
2023-03-28T08:46:12.890Z,101776.38
2023-03-28T08:49:07.385Z,101770.00
2023-03-28T08:51:58.265Z,101724.84
2023-03-28T08:54:49.888Z,101686.13
2023-03-28T08:57:38.032Z,101617.38
2023-03-28T09:00:28.101Z,101626.50
2023-03-28T09:03:16.427Z,101599.03
2023-03-28T09:06:28.302Z,101618.63
2023-03-28T09:09:42.140Z,101546.97
2023-03-28T09:12:46.965Z,101533.03
2023-03-28T09:16:00.841Z,101471.34
2023-03-28T09:18:55.254Z,101509.88
2023-03-28T09:21:40.403Z,101553.69
2023-03-28T09:24:30.232Z,101596.88
2023-03-28T09:27:22.310Z,101606.19
2023-03-28T09:30:29.218Z,101606.31
2023-03-28T09:33:20.478Z,101628.56
2023-03-28T09:36:19.003Z,101645.75
2023-03-28T09:39:14.235Z,101643.03
2023-03-28T09:42:25.479Z,101670.00
2023-03-28T09:45:36.565Z,101695.41
2023-03-28T09:48:33.327Z,101699.34
2023-03-28T09:51:19.570Z,101690.44
2023-03-28T09:54:06.685Z,101696.97
2023-03-28T09:56:52.926Z,101688.56
2023-03-28T09:59:38.282Z,101662.34
2023-03-28T10:02:33.981Z,101615.50
2023-03-28T10:05:39.124Z,101610.25
2023-03-28T10:08:35.690Z,101588.25
2023-03-28T10:11:20.827Z,101584.56
2023-03-28T10:14:05.912Z,101577.50
2023-03-28T10:16:51.859Z,101460.78
2023-03-28T10:19:41.798Z,101398.56
2023-03-28T10:22:32.335Z,101406.91
2023-03-28T10:25:31.887Z,101462.16
2023-03-28T10:28:27.569Z,101484.28
2023-03-28T10:31:25.307Z,101543.03
2023-03-28T10:34:24.587Z,101559.69
2023-03-28T10:37:23.846Z,101500.81
2023-03-28T10:40:18.215Z,101524.31
2023-03-28T10:43:10.920Z,101511.97
2023-03-28T10:46:01.444Z,101521.63
2023-03-28T10:48:56.352Z,101553.06
2023-03-28T10:51:43.368Z,101572.38
2023-03-28T10:54:41.076Z,101495.41
2023-03-28T10:57:39.604Z,101466.59
2023-03-28T11:01:04.543Z,101490.66
2023-03-28T11:04:14.116Z,101449.25
2023-03-28T11:07:10.583Z,101484.03
2023-03-28T11:10:07.146Z,101505.47
2023-03-28T11:12:59.554Z,101482.25
2023-03-28T11:16:03.710Z,101504.63
2023-03-28T11:18:57.955Z,101466.13
2023-03-28T11:22:03.523Z,101420.53
2023-03-28T11:25:19.672Z,101411.28
2023-03-28T11:28:25.057Z,101359.38
2023-03-28T11:31:18.578Z,101420.84
2023-03-28T11:34:17.380Z,101395.56
2023-03-28T11:37:08.600Z,101430.34
2023-03-28T11:40:05.305Z,101446.38
2023-03-28T11:42:56.616Z,101448.06
2023-03-28T11:45:54.172Z,101440.50
2023-03-28T11:49:08.950Z,101421.44
2023-03-28T11:52:31.623Z,101383.66
2023-03-28T11:55:25.458Z,101430.06
2023-03-28T11:58:26.288Z,101336.38
2023-03-28T12:01:23.647Z,101344.69
2023-03-28T12:04:16.452Z,101395.41
2023-03-28T12:07:20.722Z,101380.06
2023-03-28T12:10:18.737Z,101276.59
2023-03-28T12:13:14.070Z,101283.22
2023-03-28T12:16:05.285Z,101324.13
2023-03-28T12:18:59.668Z,101371.31
2023-03-28T12:21:57.103Z,101386.56
2023-03-28T12:24:49.459Z,101371.28
2023-03-28T12:28:02.965Z,101358.00
2023-03-28T12:31:08.819Z,101379.97
2023-03-28T12:34:22.989Z,101400.00
2023-03-28T12:37:22.225Z,101340.44
2023-03-28T12:40:29.969Z,101347.31
2023-03-28T12:43:18.243Z,101400.13
2023-03-28T12:46:06.863Z,101345.09
2023-03-28T12:49:12.559Z,101327.19
2023-03-28T12:52:02.600Z,101293.63
2023-03-28T12:55:03.074Z,101302.47
2023-03-28T12:57:48.629Z,101304.75
2023-03-28T13:00:43.047Z,101272.00
2023-03-28T13:03:57.617Z,101278.78
2023-03-28T13:06:58.837Z,101303.13
2023-03-28T13:09:53.372Z,101244.19
2023-03-28T13:13:01.382Z,101209.41
2023-03-28T13:16:05.835Z,101202.09
2023-03-28T13:19:36.303Z,101171.13
2023-03-28T13:22:50.503Z,101246.91
2023-03-28T13:25:37.351Z,101251.78
2023-03-28T13:28:34.531Z,101290.13
2023-03-28T13:31:24.958Z,101239.91
2023-03-28T13:34:22.379Z,101287.19
2023-03-28T13:37:23.421Z,101215.38
2023-03-28T13:40:43.612Z,101232.72
2023-03-28T13:43:35.301Z,101216.88
2023-03-28T13:46:45.343Z,101204.59
2023-03-28T13:49:30.557Z,101224.94
2023-03-28T13:52:22.748Z,101244.81
2023-03-28T13:55:20.427Z,101233.88
2023-03-28T13:58:05.479Z,101184.81
2023-03-28T14:01:06.873Z,101160.41
2023-03-28T14:03:54.094Z,101087.16
2023-03-28T14:06:42.078Z,101091.91
2023-03-28T14:09:27.144Z,101089.16
2023-03-28T14:12:14.246Z,101090.97
2023-03-28T14:15:01.011Z,101136.72
2023-03-28T14:17:46.476Z,101138.69
2023-03-28T14:20:33.974Z,101157.88
2023-03-28T14:23:33.018Z,101160.47
2023-03-28T14:26:20.073Z,101162.13
2023-03-28T14:29:13.684Z,101136.16
2023-03-28T14:31:58.697Z,101105.84
2023-03-28T14:34:43.874Z,101143.94
2023-03-28T14:37:29.417Z,101114.44
2023-03-28T14:40:35.613Z,101130.84
2023-03-28T14:43:28.192Z,101110.28
2023-03-28T14:46:13.318Z,101098.41
2023-03-28T14:49:02.019Z,101136.94
2023-03-28T14:51:54.032Z,101101.97
2023-03-28T14:54:44.792Z,101056.06
2023-03-28T14:57:30.925Z,101070.97
2023-03-28T15:00:20.274Z,101099.56
2023-03-28T15:03:15.573Z,101084.78
2023-03-28T15:06:02.259Z,101100.41
2023-03-28T15:08:49.117Z,101019.72
2023-03-28T15:11:36.385Z,100998.94
2023-03-28T15:14:39.243Z,100963.94
2023-03-28T15:17:25.132Z,101000.56
2023-03-28T15:20:17.863Z,100979.63
2023-03-28T15:23:12.629Z,100986.06
2023-03-28T15:26:07.404Z,101043.84
2023-03-28T15:28:55.079Z,101055.78
2023-03-28T15:31:41.046Z,101002.22
2023-03-28T15:34:27.003Z,100979.28
2023-03-28T15:37:16.098Z,100934.84
2023-03-28T15:40:21.744Z,100944.63
2023-03-28T15:43:08.010Z,100967.25
2023-03-28T15:45:59.596Z,100931.53
2023-03-28T15:48:45.021Z,100955.41
2023-03-28T15:51:31.535Z,100948.75
2023-03-28T15:54:30.353Z,100937.97
2023-03-28T15:57:20.058Z,100951.72
2023-03-28T16:00:06.320Z,100958.59
2023-03-28T16:02:51.448Z,100942.97
2023-03-28T16:05:37.758Z,100967.94
2023-03-28T16:08:25.322Z,101015.16
2023-03-28T16:11:16.126Z,100977.75
2023-03-28T16:14:01.508Z,100954.31
2023-03-28T16:16:46.816Z,100990.38
2023-03-28T16:19:31.926Z,100993.22
2023-03-28T16:22:17.308Z,100972.44
2023-03-28T16:25:03.297Z,100939.09
2023-03-28T16:27:48.711Z,100938.19
2023-03-28T16:30:36.749Z,100953.00
2023-03-28T16:33:21.934Z,100957.72
2023-03-28T16:36:07.698Z,100939.59
2023-03-28T16:38:52.934Z,100917.34
2023-03-28T16:41:38.439Z,100941.34
2023-03-28T16:44:23.768Z,100913.69
2023-03-28T16:47:09.271Z,100905.72
2023-03-28T16:49:54.600Z,100911.84
2023-03-28T16:52:40.957Z,100908.00
2023-03-28T16:55:26.396Z,100900.06
2023-03-28T16:58:11.682Z,100898.38
2023-03-28T17:00:57.341Z,100858.88
2023-03-28T17:03:42.672Z,100848.59
2023-03-28T17:06:28.384Z,100851.91
2023-03-28T17:09:13.867Z,100869.03
2023-03-28T17:11:59.221Z,100864.66
2023-03-28T17:14:44.661Z,100859.28
2023-03-28T17:17:29.655Z,100864.44
2023-03-28T17:20:15.345Z,100883.91
2023-03-28T17:23:00.905Z,100892.66
2023-03-28T17:25:54.503Z,100882.28
2023-03-28T17:28:46.856Z,100890.50
2023-03-28T17:31:32.426Z,100873.41
2023-03-28T17:34:18.282Z,100896.47
2023-03-28T17:37:03.173Z,100889.69
2023-03-28T17:39:48.537Z,100907.91
2023-03-28T17:42:34.308Z,100881.88
2023-03-28T17:45:19.460Z,100869.88
2023-03-28T17:48:04.713Z,100845.78
2023-03-28T17:50:54.980Z,100834.44
2023-03-28T17:53:42.749Z,100866.09
2023-03-28T17:56:28.461Z,100852.72
2023-03-28T17:59:13.838Z,100825.06
2023-03-28T18:01:59.358Z,100821.50
2023-03-28T18:04:44.434Z,100819.13
2023-03-28T18:07:29.722Z,100811.66
2023-03-28T18:10:16.196Z,100804.78
2023-03-28T18:13:01.596Z,100804.72
2023-03-28T18:15:46.528Z,100795.16
2023-03-28T18:18:32.881Z,100789.25
2023-03-28T18:21:20.603Z,100788.03
2023-03-28T18:24:05.946Z,100802.94
2023-03-28T18:26:51.014Z,100791.66
2023-03-28T18:29:36.411Z,100783.28
2023-03-28T18:32:23.380Z,100783.09
2023-03-28T18:35:08.902Z,100793.28
2023-03-28T18:37:55.777Z,100785.28
2023-03-28T18:40:42.107Z,100814.34
2023-03-28T18:43:27.183Z,100863.19
2023-03-28T18:46:15.204Z,100861.13
2023-03-28T18:49:01.107Z,100854.69
2023-03-28T18:51:46.417Z,100859.34
2023-03-28T18:54:33.730Z,100847.94
2023-03-28T18:57:18.872Z,100836.19
2023-03-28T19:00:04.966Z,100832.91
2023-03-28T19:02:50.332Z,100801.19
2023-03-28T19:05:35.784Z,100813.72
2023-03-28T19:08:21.286Z,100791.50
2023-03-28T19:11:10.249Z,100802.41
2023-03-28T19:13:55.554Z,100817.72
2023-03-28T19:16:41.259Z,100802.97
2023-03-28T19:19:26.675Z,100811.44
2023-03-28T19:22:11.814Z,100815.63
2023-03-28T19:24:57.234Z,100825.59
2023-03-28T19:27:42.571Z,100824.56
2023-03-28T19:30:27.932Z,100818.56
2023-03-28T19:33:13.635Z,100827.28
2023-03-28T19:35:59.051Z,100820.09
2023-03-28T19:38:44.270Z,100824.31
2023-03-28T19:41:29.670Z,100822.44
2023-03-28T19:44:15.228Z,100823.38
2023-03-28T19:47:00.630Z,100831.25
2023-03-28T19:49:45.612Z,100824.03
2023-03-28T19:52:30.674Z,100823.16
2023-03-28T19:55:16.061Z,100818.31
2023-03-28T19:58:01.477Z,100837.06
2023-03-28T20:00:47.219Z,100818.78
2023-03-28T20:03:33.065Z,100819.66
2023-03-28T20:06:20.279Z,100822.53
2023-03-28T20:09:05.414Z,100805.31
2023-03-28T20:11:50.960Z,100815.56
2023-03-28T20:14:36.249Z,100801.09
2023-03-28T20:17:21.416Z,100805.47
2023-03-28T20:20:07.670Z,100802.59
2023-03-28T20:22:52.995Z,100794.78
2023-03-28T20:25:40.861Z,100811.81
2023-03-28T20:28:25.885Z,100814.28
2023-03-28T20:31:12.015Z,100812.53
2023-03-28T20:33:57.123Z,100805.72
2023-03-28T20:36:42.416Z,100793.63
2023-03-28T20:39:27.891Z,100798.75
2023-03-28T20:42:12.950Z,100808.06
2023-03-28T20:44:58.331Z,100792.69
2023-03-28T20:47:43.817Z,100799.63
2023-03-28T20:50:30.154Z,100813.91
2023-03-28T20:53:15.107Z,100810.53
2023-03-28T20:56:02.228Z,100812.00
2023-03-28T20:58:48.890Z,100814.50
2023-03-28T21:01:34.671Z,100812.75
2023-03-28T21:04:22.000Z,100820.44
2023-03-28T21:07:07.402Z,100829.03
2023-03-28T21:09:52.758Z,100843.59
2023-03-28T21:12:37.558Z,100860.78
2023-03-28T21:15:22.830Z,100865.84
2023-03-28T21:18:08.357Z,100874.38
2023-03-28T21:20:53.677Z,100882.00
2023-03-28T21:23:41.018Z,100887.88
2023-03-28T21:26:26.323Z,100888.13
2023-03-28T21:29:11.537Z,100893.41
2023-03-28T21:31:56.827Z,100898.47
2023-03-28T21:34:42.259Z,100891.22
2023-03-28T21:37:27.716Z,100890.38
2023-03-28T21:40:12.742Z,100879.44
2023-03-28T21:42:58.054Z,100883.84
2023-03-28T21:45:44.149Z,100876.97
2023-03-28T21:48:29.492Z,100896.66
2023-03-28T21:51:15.344Z,100883.94
2023-03-28T21:54:00.706Z,100898.09
2023-03-28T21:56:45.981Z,100920.25
2023-03-28T21:59:31.387Z,100925.28
2023-03-28T22:02:17.146Z,100929.63
2023-03-28T22:05:02.459Z,100936.47
2023-03-28T22:07:49.074Z,100948.41
2023-03-28T22:10:36.107Z,100964.41
2023-03-28T22:13:21.443Z,100972.81
2023-03-28T22:16:07.784Z,100990.09
2023-03-28T22:18:52.812Z,100997.63
2023-03-28T22:21:38.113Z,101029.34
2023-03-28T22:24:23.634Z,101041.06
2023-03-28T22:27:09.286Z,101073.50
2023-03-28T22:29:54.689Z,101080.88
2023-03-28T22:32:40.203Z,101077.16
2023-03-28T22:35:25.555Z,101094.13
2023-03-28T22:38:10.304Z,101091.34
2023-03-28T22:40:55.527Z,101122.56
2023-03-28T22:43:40.603Z,101121.41
2023-03-28T22:46:26.023Z,101127.88
2023-03-28T22:49:11.588Z,101137.81
2023-03-28T22:51:57.027Z,101145.38
2023-03-28T22:54:42.339Z,101159.66
2023-03-28T22:57:27.757Z,101157.09
2023-03-28T23:00:14.461Z,101155.13
2023-03-28T23:03:01.615Z,101163.47
2023-03-28T23:05:46.627Z,101173.56
2023-03-28T23:08:33.182Z,101163.13
2023-03-28T23:11:18.352Z,101168.09
2023-03-28T23:14:03.906Z,101162.06
2023-03-28T23:16:49.057Z,101173.59
2023-03-28T23:19:34.584Z,101171.63
2023-03-28T23:22:19.812Z,101174.84
2023-03-28T23:25:05.258Z,101180.38
2023-03-28T23:27:50.693Z,101171.03
2023-03-28T23:30:35.597Z,101184.63
2023-03-28T23:33:20.555Z,101172.50
2023-03-28T23:36:06.543Z,101176.59
2023-03-28T23:38:51.935Z,101172.41
2023-03-28T23:41:37.058Z,101170.50
2023-03-28T23:44:22.540Z,101172.97
2023-03-28T23:47:07.923Z,101162.53
2023-03-28T23:49:53.251Z,101159.16
2023-03-28T23:52:38.107Z,101155.78
2023-03-28T23:55:23.446Z,101150.66
2023-03-28T23:58:08.275Z,101150.28
